sensor_id;sensor_type;location;lat;lon;timestamp;P1;durP1;ratioP1;P2;durP2;ratioP2
49514;SDS011;35415;47.870;16.058;2023-07-16T00:00:27;4.72;;;4.18;;
49514;SDS011;35415;47.870;16.058;2023-07-16T00:02:54;5.10;;;4.60;;
49514;SDS011;35415;47.870;16.058;2023-07-16T00:05:23;4.55;;;4.15;;
49514;SDS011;35415;47.870;16.058;2023-07-16T00:07:51;6.72;;;4.15;;
49514;SDS011;35415;47.870;16.058;2023-07-16T00:10:18;5.85;;;3.90;;
49514;SDS011;35415;47.870;16.058;2023-07-16T00:12:45;5.85;;;3.78;;
49514;SDS011;35415;47.870;16.058;2023-07-16T00:15:13;6.38;;;3.63;;
49514;SDS011;35415;47.870;16.058;2023-07-16T00:17:40;5.93;;;3.72;;
49514;SDS011;35415;47.870;16.058;2023-07-16T00:20:08;4.38;;;3.70;;
49514;SDS011;35415;47.870;16.058;2023-07-16T00:22:37;4.70;;;3.38;;
49514;SDS011;35415;47.870;16.058;2023-07-16T00:25:05;4.70;;;3.85;;
49514;SDS011;35415;47.870;16.058;2023-07-16T00:27:33;7.97;;;3.97;;
49514;SDS011;35415;47.870;16.058;2023-07-16T00:30:01;4.38;;;3.53;;
49514;SDS011;35415;47.870;16.058;2023-07-16T00:32:28;5.32;;;3.83;;
49514;SDS011;35415;47.870;16.058;2023-07-16T00:34:56;5.35;;;3.50;;
49514;SDS011;35415;47.870;16.058;2023-07-16T00:37:23;4.53;;;3.33;;
49514;SDS011;35415;47.870;16.058;2023-07-16T00:39:53;5.80;;;3.60;;
49514;SDS011;35415;47.870;16.058;2023-07-16T00:42:20;6.28;;;3.33;;
49514;SDS011;35415;47.870;16.058;2023-07-16T00:44:47;5.40;;;3.50;;
49514;SDS011;35415;47.870;16.058;2023-07-16T00:47:15;7.93;;;3.58;;
49514;SDS011;35415;47.870;16.058;2023-07-16T00:49:43;4.40;;;3.97;;
49514;SDS011;35415;47.870;16.058;2023-07-16T00:52:14;5.55;;;3.40;;
49514;SDS011;35415;47.870;16.058;2023-07-16T00:54:44;6.40;;;3.92;;
49514;SDS011;35415;47.870;16.058;2023-07-16T00:57:14;4.70;;;4.20;;
49514;SDS011;35415;47.870;16.058;2023-07-16T00:59:41;4.35;;;3.70;;
49514;SDS011;35415;47.870;16.058;2023-07-16T01:02:09;6.28;;;3.70;;
49514;SDS011;35415;47.870;16.058;2023-07-16T01:04:37;4.53;;;3.75;;
49514;SDS011;35415;47.870;16.058;2023-07-16T01:07:04;7.03;;;3.58;;
49514;SDS011;35415;47.870;16.058;2023-07-16T01:09:34;5.55;;;3.95;;
49514;SDS011;35415;47.870;16.058;2023-07-16T01:12:07;4.35;;;3.30;;
49514;SDS011;35415;47.870;16.058;2023-07-16T01:14:37;5.93;;;4.35;;
49514;SDS011;35415;47.870;16.058;2023-07-16T01:17:06;3.83;;;3.25;;
49514;SDS011;35415;47.870;16.058;2023-07-16T01:19:33;4.25;;;3.78;;
49514;SDS011;35415;47.870;16.058;2023-07-16T01:22:05;4.40;;;3.92;;
49514;SDS011;35415;47.870;16.058;2023-07-16T01:24:51;3.72;;;3.42;;
49514;SDS011;35415;47.870;16.058;2023-07-16T01:27:34;4.82;;;3.30;;
49514;SDS011;35415;47.870;16.058;2023-07-16T01:30:19;6.13;;;3.38;;
49514;SDS011;35415;47.870;16.058;2023-07-16T01:32:46;8.43;;;3.85;;
49514;SDS011;35415;47.870;16.058;2023-07-16T01:35:14;4.15;;;3.72;;
49514;SDS011;35415;47.870;16.058;2023-07-16T01:37:42;4.32;;;3.70;;
49514;SDS011;35415;47.870;16.058;2023-07-16T01:40:10;5.60;;;3.50;;
49514;SDS011;35415;47.870;16.058;2023-07-16T01:42:37;4.90;;;3.70;;
49514;SDS011;35415;47.870;16.058;2023-07-16T01:45:05;5.10;;;4.15;;
49514;SDS011;35415;47.870;16.058;2023-07-16T01:47:36;5.80;;;3.50;;
49514;SDS011;35415;47.870;16.058;2023-07-16T01:50:11;5.07;;;4.05;;
49514;SDS011;35415;47.870;16.058;2023-07-16T01:52:38;4.80;;;3.60;;
49514;SDS011;35415;47.870;16.058;2023-07-16T01:55:05;6.15;;;3.67;;
49514;SDS011;35415;47.870;16.058;2023-07-16T01:57:32;4.65;;;3.67;;
49514;SDS011;35415;47.870;16.058;2023-07-16T02:00:00;6.07;;;3.55;;
49514;SDS011;35415;47.870;16.058;2023-07-16T02:02:28;4.85;;;3.72;;
49514;SDS011;35415;47.870;16.058;2023-07-16T02:04:57;4.82;;;3.53;;
49514;SDS011;35415;47.870;16.058;2023-07-16T02:07:24;4.28;;;3.88;;
49514;SDS011;35415;47.870;16.058;2023-07-16T02:09:51;5.95;;;4.13;;
49514;SDS011;35415;47.870;16.058;2023-07-16T02:12:18;6.75;;;4.38;;
49514;SDS011;35415;47.870;16.058;2023-07-16T02:14:46;5.72;;;3.97;;
49514;SDS011;35415;47.870;16.058;2023-07-16T02:17:13;4.57;;;3.97;;
49514;SDS011;35415;47.870;16.058;2023-07-16T02:19:40;4.93;;;4.10;;
49514;SDS011;35415;47.870;16.058;2023-07-16T02:22:09;4.93;;;3.85;;
49514;SDS011;35415;47.870;16.058;2023-07-16T02:24:36;4.45;;;3.80;;
49514;SDS011;35415;47.870;16.058;2023-07-16T02:27:04;8.10;;;4.63;;
49514;SDS011;35415;47.870;16.058;2023-07-16T02:29:31;5.05;;;4.00;;
49514;SDS011;35415;47.870;16.058;2023-07-16T02:31:59;5.55;;;4.13;;
49514;SDS011;35415;47.870;16.058;2023-07-16T02:34:26;6.63;;;4.68;;
49514;SDS011;35415;47.870;16.058;2023-07-16T02:36:53;5.70;;;3.92;;
49514;SDS011;35415;47.870;16.058;2023-07-16T02:39:23;6.30;;;4.85;;
49514;SDS011;35415;47.870;16.058;2023-07-16T02:41:51;4.65;;;3.75;;
49514;SDS011;35415;47.870;16.058;2023-07-16T02:44:18;5.07;;;4.20;;
49514;SDS011;35415;47.870;16.058;2023-07-16T02:46:45;5.70;;;4.45;;
49514;SDS011;35415;47.870;16.058;2023-07-16T02:49:13;5.57;;;4.50;;
49514;SDS011;35415;47.870;16.058;2023-07-16T02:51:40;6.20;;;4.60;;
49514;SDS011;35415;47.870;16.058;2023-07-16T02:54:08;6.28;;;4.50;;
49514;SDS011;35415;47.870;16.058;2023-07-16T02:56:37;5.78;;;4.45;;
49514;SDS011;35415;47.870;16.058;2023-07-16T02:59:04;6.40;;;4.57;;
49514;SDS011;35415;47.870;16.058;2023-07-16T03:01:32;9.18;;;4.65;;
49514;SDS011;35415;47.870;16.058;2023-07-16T03:03:59;4.68;;;4.00;;
49514;SDS011;35415;47.870;16.058;2023-07-16T03:06:27;6.68;;;4.05;;
49514;SDS011;35415;47.870;16.058;2023-07-16T03:08:54;5.85;;;4.18;;
49514;SDS011;35415;47.870;16.058;2023-07-16T03:11:22;5.40;;;4.25;;
49514;SDS011;35415;47.870;16.058;2023-07-16T03:13:51;5.93;;;4.60;;
49514;SDS011;35415;47.870;16.058;2023-07-16T03:16:18;5.47;;;4.47;;
49514;SDS011;35415;47.870;16.058;2023-07-16T03:18:45;5.55;;;4.82;;
49514;SDS011;35415;47.870;16.058;2023-07-16T03:21:17;5.30;;;4.55;;
49514;SDS011;35415;47.870;16.058;2023-07-16T03:23:44;6.45;;;4.47;;
49514;SDS011;35415;47.870;16.058;2023-07-16T03:26:17;8.38;;;4.60;;
49514;SDS011;35415;47.870;16.058;2023-07-16T03:28:44;8.30;;;5.43;;
49514;SDS011;35415;47.870;16.058;2023-07-16T03:31:13;9.95;;;4.80;;
49514;SDS011;35415;47.870;16.058;2023-07-16T03:33:41;9.07;;;4.72;;
49514;SDS011;35415;47.870;16.058;2023-07-16T03:36:08;6.80;;;4.45;;
49514;SDS011;35415;47.870;16.058;2023-07-16T03:38:35;7.05;;;4.43;;
49514;SDS011;35415;47.870;16.058;2023-07-16T03:41:02;6.45;;;4.65;;
49514;SDS011;35415;47.870;16.058;2023-07-16T03:43:29;5.05;;;4.28;;
49514;SDS011;35415;47.870;16.058;2023-07-16T03:45:56;8.75;;;5.15;;
49514;SDS011;35415;47.870;16.058;2023-07-16T03:48:26;5.00;;;4.10;;
49514;SDS011;35415;47.870;16.058;2023-07-16T03:50:54;7.15;;;4.63;;
49514;SDS011;35415;47.870;16.058;2023-07-16T03:53:21;6.97;;;5.25;;
49514;SDS011;35415;47.870;16.058;2023-07-16T03:55:48;6.65;;;4.85;;
49514;SDS011;35415;47.870;16.058;2023-07-16T03:58:15;5.28;;;4.65;;
49514;SDS011;35415;47.870;16.058;2023-07-16T04:00:42;8.68;;;5.07;;
49514;SDS011;35415;47.870;16.058;2023-07-16T04:03:10;9.68;;;5.25;;
49514;SDS011;35415;47.870;16.058;2023-07-16T04:05:38;5.05;;;4.40;;
49514;SDS011;35415;47.870;16.058;2023-07-16T04:08:05;6.38;;;5.47;;
49514;SDS011;35415;47.870;16.058;2023-07-16T04:10:33;5.03;;;4.53;;
49514;SDS011;35415;47.870;16.058;2023-07-16T04:13:02;8.80;;;4.65;;
49514;SDS011;35415;47.870;16.058;2023-07-16T04:15:29;5.10;;;4.60;;
49514;SDS011;35415;47.870;16.058;2023-07-16T04:17:57;7.28;;;4.93;;
49514;SDS011;35415;47.870;16.058;2023-07-16T04:20:24;7.57;;;5.40;;
49514;SDS011;35415;47.870;16.058;2023-07-16T04:22:53;9.18;;;5.30;;
49514;SDS011;35415;47.870;16.058;2023-07-16T04:25:20;6.00;;;4.80;;
49514;SDS011;35415;47.870;16.058;2023-07-16T04:27:48;5.30;;;4.45;;
49514;SDS011;35415;47.870;16.058;2023-07-16T04:30:15;7.68;;;4.88;;
49514;SDS011;35415;47.870;16.058;2023-07-16T04:32:42;6.72;;;5.65;;
49514;SDS011;35415;47.870;16.058;2023-07-16T04:35:09;6.05;;;5.35;;
49514;SDS011;35415;47.870;16.058;2023-07-16T04:37:37;5.82;;;4.72;;
49514;SDS011;35415;47.870;16.058;2023-07-16T04:40:09;6.15;;;5.00;;
49514;SDS011;35415;47.870;16.058;2023-07-16T04:42:37;5.82;;;5.22;;
49514;SDS011;35415;47.870;16.058;2023-07-16T04:45:04;6.50;;;4.80;;
49514;SDS011;35415;47.870;16.058;2023-07-16T04:47:32;5.43;;;4.50;;
49514;SDS011;35415;47.870;16.058;2023-07-16T04:49:59;7.22;;;5.00;;
49514;SDS011;35415;47.870;16.058;2023-07-16T04:52:26;6.50;;;4.55;;
49514;SDS011;35415;47.870;16.058;2023-07-16T04:54:54;8.23;;;5.10;;
49514;SDS011;35415;47.870;16.058;2023-07-16T04:57:23;7.38;;;5.22;;
49514;SDS011;35415;47.870;16.058;2023-07-16T04:59:50;5.15;;;4.65;;
49514;SDS011;35415;47.870;16.058;2023-07-16T05:02:18;7.57;;;5.20;;
49514;SDS011;35415;47.870;16.058;2023-07-16T05:04:44;5.22;;;4.72;;
49514;SDS011;35415;47.870;16.058;2023-07-16T05:07:13;5.93;;;4.60;;
49514;SDS011;35415;47.870;16.058;2023-07-16T05:09:41;5.38;;;4.30;;
49514;SDS011;35415;47.870;16.058;2023-07-16T05:12:09;5.20;;;4.68;;
49514;SDS011;35415;47.870;16.058;2023-07-16T05:14:44;6.18;;;4.53;;
49514;SDS011;35415;47.870;16.058;2023-07-16T05:17:12;5.00;;;4.50;;
49514;SDS011;35415;47.870;16.058;2023-07-16T05:19:40;5.95;;;4.50;;
49514;SDS011;35415;47.870;16.058;2023-07-16T05:22:08;6.80;;;4.22;;
49514;SDS011;35415;47.870;16.058;2023-07-16T05:24:35;7.50;;;4.18;;
49514;SDS011;35415;47.870;16.058;2023-07-16T05:27:03;4.72;;;3.78;;
49514;SDS011;35415;47.870;16.058;2023-07-16T05:29:31;5.03;;;3.63;;
49514;SDS011;35415;47.870;16.058;2023-07-16T05:32:12;5.65;;;3.70;;
49514;SDS011;35415;47.870;16.058;2023-07-16T05:34:39;3.88;;;3.58;;
49514;SDS011;35415;47.870;16.058;2023-07-16T05:37:06;4.53;;;3.90;;
49514;SDS011;35415;47.870;16.058;2023-07-16T05:39:34;4.03;;;3.65;;
49514;SDS011;35415;47.870;16.058;2023-07-16T05:42:01;4.80;;;3.63;;
49514;SDS011;35415;47.870;16.058;2023-07-16T05:44:28;5.32;;;3.28;;
49514;SDS011;35415;47.870;16.058;2023-07-16T05:46:56;7.20;;;2.97;;
49514;SDS011;35415;47.870;16.058;2023-07-16T05:49:25;4.90;;;2.83;;
49514;SDS011;35415;47.870;16.058;2023-07-16T05:51:54;3.00;;;2.70;;
49514;SDS011;35415;47.870;16.058;2023-07-16T05:54:22;3.40;;;2.80;;
49514;SDS011;35415;47.870;16.058;2023-07-16T05:56:50;3.30;;;3.00;;
49514;SDS011;35415;47.870;16.058;2023-07-16T05:59:18;3.38;;;2.80;;
49514;SDS011;35415;47.870;16.058;2023-07-16T06:01:45;4.13;;;2.83;;
49514;SDS011;35415;47.870;16.058;2023-07-16T06:04:12;4.38;;;2.97;;
49514;SDS011;35415;47.870;16.058;2023-07-16T06:06:41;3.75;;;2.72;;
49514;SDS011;35415;47.870;16.058;2023-07-16T06:09:08;7.25;;;2.78;;
49514;SDS011;35415;47.870;16.058;2023-07-16T06:11:36;6.75;;;2.70;;
49514;SDS011;35415;47.870;16.058;2023-07-16T06:14:06;5.60;;;2.70;;
49514;SDS011;35415;47.870;16.058;2023-07-16T06:16:33;4.45;;;3.08;;
49514;SDS011;35415;47.870;16.058;2023-07-16T06:19:01;6.47;;;3.00;;
49514;SDS011;35415;47.870;16.058;2023-07-16T06:21:30;5.22;;;3.05;;
49514;SDS011;35415;47.870;16.058;2023-07-16T06:23:59;4.40;;;2.70;;
49514;SDS011;35415;47.870;16.058;2023-07-16T06:26:26;4.85;;;3.10;;
49514;SDS011;35415;47.870;16.058;2023-07-16T06:28:55;7.28;;;2.88;;
49514;SDS011;35415;47.870;16.058;2023-07-16T06:31:22;3.35;;;2.70;;
49514;SDS011;35415;47.870;16.058;2023-07-16T06:33:50;2.92;;;2.47;;
49514;SDS011;35415;47.870;16.058;2023-07-16T06:36:18;6.32;;;2.20;;
49514;SDS011;35415;47.870;16.058;2023-07-16T06:38:46;4.47;;;3.05;;
49514;SDS011;35415;47.870;16.058;2023-07-16T06:41:15;4.00;;;2.40;;
49514;SDS011;35415;47.870;16.058;2023-07-16T06:43:42;2.30;;;2.10;;
49514;SDS011;35415;47.870;16.058;2023-07-16T06:46:09;2.38;;;2.17;;
49514;SDS011;35415;47.870;16.058;2023-07-16T06:48:37;7.85;;;2.97;;
49514;SDS011;35415;47.870;16.058;2023-07-16T06:51:04;3.13;;;2.67;;
49514;SDS011;35415;47.870;16.058;2023-07-16T06:53:32;2.60;;;2.33;;
49514;SDS011;35415;47.870;16.058;2023-07-16T06:56:01;6.35;;;2.40;;
49514;SDS011;35415;47.870;16.058;2023-07-16T06:58:34;2.50;;;2.30;;
49514;SDS011;35415;47.870;16.058;2023-07-16T07:01:01;4.03;;;2.92;;
49514;SDS011;35415;47.870;16.058;2023-07-16T07:03:28;5.72;;;2.15;;
49514;SDS011;35415;47.870;16.058;2023-07-16T07:05:58;3.33;;;2.10;;
49514;SDS011;35415;47.870;16.058;2023-07-16T07:08:30;9.63;;;2.40;;
49514;SDS011;35415;47.870;16.058;2023-07-16T07:10:58;2.22;;;2.00;;
49514;SDS011;35415;47.870;16.058;2023-07-16T07:13:25;2.67;;;2.42;;
49514;SDS011;35415;47.870;16.058;2023-07-16T07:15:54;2.38;;;2.17;;
49514;SDS011;35415;47.870;16.058;2023-07-16T07:18:23;5.20;;;2.05;;
49514;SDS011;35415;47.870;16.058;2023-07-16T07:20:50;2.90;;;2.10;;
49514;SDS011;35415;47.870;16.058;2023-07-16T07:23:18;5.40;;;2.22;;
49514;SDS011;35415;47.870;16.058;2023-07-16T07:25:48;6.65;;;2.08;;
49514;SDS011;35415;47.870;16.058;2023-07-16T07:28:16;3.38;;;2.75;;
49514;SDS011;35415;47.870;16.058;2023-07-16T07:30:44;2.70;;;2.33;;
49514;SDS011;35415;47.870;16.058;2023-07-16T07:33:14;3.08;;;2.03;;
49514;SDS011;35415;47.870;16.058;2023-07-16T07:35:41;2.33;;;2.13;;
49514;SDS011;35415;47.870;16.058;2023-07-16T07:38:08;8.60;;;2.38;;
49514;SDS011;35415;47.870;16.058;2023-07-16T07:40:35;3.03;;;2.30;;
49514;SDS011;35415;47.870;16.058;2023-07-16T07:43:02;2.85;;;2.10;;
49514;SDS011;35415;47.870;16.058;2023-07-16T07:45:29;2.50;;;1.90;;
49514;SDS011;35415;47.870;16.058;2023-07-16T07:47:56;2.97;;;2.10;;
49514;SDS011;35415;47.870;16.058;2023-07-16T07:50:25;2.17;;;1.83;;
49514;SDS011;35415;47.870;16.058;2023-07-16T07:52:54;2.65;;;2.45;;
49514;SDS011;35415;47.870;16.058;2023-07-16T07:55:21;3.70;;;2.20;;
49514;SDS011;35415;47.870;16.058;2023-07-16T07:57:48;2.92;;;2.30;;
49514;SDS011;35415;47.870;16.058;2023-07-16T08:00:16;2.30;;;2.10;;
49514;SDS011;35415;47.870;16.058;2023-07-16T08:02:46;2.85;;;2.22;;
49514;SDS011;35415;47.870;16.058;2023-07-16T08:05:13;4.15;;;2.10;;
49514;SDS011;35415;47.870;16.058;2023-07-16T08:07:47;2.30;;;2.10;;
49514;SDS011;35415;47.870;16.058;2023-07-16T08:10:14;2.20;;;2.00;;
49514;SDS011;35415;47.870;16.058;2023-07-16T08:12:45;2.22;;;1.75;;
49514;SDS011;35415;47.870;16.058;2023-07-16T08:15:13;2.13;;;1.80;;
49514;SDS011;35415;47.870;16.058;2023-07-16T08:17:40;3.83;;;2.08;;
49514;SDS011;35415;47.870;16.058;2023-07-16T08:20:08;2.25;;;2.05;;
49514;SDS011;35415;47.870;16.058;2023-07-16T08:22:36;2.53;;;2.28;;
49514;SDS011;35415;47.870;16.058;2023-07-16T08:25:07;2.08;;;1.85;;
49514;SDS011;35415;47.870;16.058;2023-07-16T08:27:34;2.05;;;1.95;;
49514;SDS011;35415;47.870;16.058;2023-07-16T08:30:02;2.65;;;2.17;;
49514;SDS011;35415;47.870;16.058;2023-07-16T08:32:30;3.13;;;2.20;;
49514;SDS011;35415;47.870;16.058;2023-07-16T08:34:57;3.20;;;2.25;;
49514;SDS011;35415;47.870;16.058;2023-07-16T08:37:29;2.70;;;2.22;;
49514;SDS011;35415;47.870;16.058;2023-07-16T08:39:56;2.13;;;1.92;;
49514;SDS011;35415;47.870;16.058;2023-07-16T08:42:25;3.97;;;2.50;;
49514;SDS011;35415;47.870;16.058;2023-07-16T08:44:52;2.90;;;2.20;;
49514;SDS011;35415;47.870;16.058;2023-07-16T08:47:21;2.28;;;2.15;;
49514;SDS011;35415;47.870;16.058;2023-07-16T08:49:50;7.38;;;3.97;;
49514;SDS011;35415;47.870;16.058;2023-07-16T08:52:21;2.85;;;2.45;;
49514;SDS011;35415;47.870;16.058;2023-07-16T08:54:48;2.60;;;2.40;;
49514;SDS011;35415;47.870;16.058;2023-07-16T08:57:16;3.38;;;2.33;;
49514;SDS011;35415;47.870;16.058;2023-07-16T08:59:46;2.58;;;2.08;;
49514;SDS011;35415;47.870;16.058;2023-07-16T09:02:15;2.60;;;2.10;;
49514;SDS011;35415;47.870;16.058;2023-07-16T09:04:43;2.80;;;2.40;;
49514;SDS011;35415;47.870;16.058;2023-07-16T09:07:10;1.90;;;1.80;;
49514;SDS011;35415;47.870;16.058;2023-07-16T09:09:37;2.40;;;2.20;;
49514;SDS011;35415;47.870;16.058;2023-07-16T09:12:05;2.45;;;2.25;;
49514;SDS011;35415;47.870;16.058;2023-07-16T09:14:34;3.53;;;2.17;;
49514;SDS011;35415;47.870;16.058;2023-07-16T09:17:02;2.97;;;2.08;;
49514;SDS011;35415;47.870;16.058;2023-07-16T09:19:31;2.42;;;2.15;;
49514;SDS011;35415;47.870;16.058;2023-07-16T09:21:59;2.75;;;2.38;;
49514;SDS011;35415;47.870;16.058;2023-07-16T09:24:26;2.15;;;1.90;;
49514;SDS011;35415;47.870;16.058;2023-07-16T09:26:55;2.92;;;2.10;;
49514;SDS011;35415;47.870;16.058;2023-07-16T09:29:24;2.75;;;2.53;;
49514;SDS011;35415;47.870;16.058;2023-07-16T09:31:53;1.95;;;1.85;;
49514;SDS011;35415;47.870;16.058;2023-07-16T09:34:23;2.80;;;2.17;;
49514;SDS011;35415;47.870;16.058;2023-07-16T09:36:53;3.15;;;2.13;;
49514;SDS011;35415;47.870;16.058;2023-07-16T09:39:21;3.35;;;2.30;;
49514;SDS011;35415;47.870;16.058;2023-07-16T09:41:49;2.30;;;2.10;;
49514;SDS011;35415;47.870;16.058;2023-07-16T09:44:17;2.50;;;2.30;;
49514;SDS011;35415;47.870;16.058;2023-07-16T09:46:46;2.65;;;2.45;;
49514;SDS011;35415;47.870;16.058;2023-07-16T09:49:14;2.60;;;2.38;;
49514;SDS011;35415;47.870;16.058;2023-07-16T09:51:43;3.58;;;2.13;;
49514;SDS011;35415;47.870;16.058;2023-07-16T09:54:12;4.03;;;2.53;;
49514;SDS011;35415;47.870;16.058;2023-07-16T09:56:42;2.33;;;2.13;;
49514;SDS011;35415;47.870;16.058;2023-07-16T09:59:13;4.15;;;2.47;;
49514;SDS011;35415;47.870;16.058;2023-07-16T10:01:42;2.50;;;2.30;;
49514;SDS011;35415;47.870;16.058;2023-07-16T10:04:11;2.30;;;2.10;;
49514;SDS011;35415;47.870;16.058;2023-07-16T10:06:54;2.17;;;2.05;;
49514;SDS011;35415;47.870;16.058;2023-07-16T10:09:37;4.70;;;2.42;;
49514;SDS011;35415;47.870;16.058;2023-07-16T10:12:15;2.65;;;2.28;;
49514;SDS011;35415;47.870;16.058;2023-07-16T10:14:43;1.98;;;1.80;;
49514;SDS011;35415;47.870;16.058;2023-07-16T10:17:12;1.75;;;1.65;;
49514;SDS011;35415;47.870;16.058;2023-07-16T10:19:50;2.17;;;1.80;;
49514;SDS011;35415;47.870;16.058;2023-07-16T10:22:32;2.42;;;1.98;;
49514;SDS011;35415;47.870;16.058;2023-07-16T10:25:01;1.92;;;1.60;;
49514;SDS011;35415;47.870;16.058;2023-07-16T10:27:30;2.13;;;2.00;;
49514;SDS011;35415;47.870;16.058;2023-07-16T10:29:58;2.35;;;1.67;;
49514;SDS011;35415;47.870;16.058;2023-07-16T10:32:27;2.00;;;1.67;;
49514;SDS011;35415;47.870;16.058;2023-07-16T10:34:56;1.95;;;1.80;;
49514;SDS011;35415;47.870;16.058;2023-07-16T10:37:28;2.08;;;1.80;;
49514;SDS011;35415;47.870;16.058;2023-07-16T10:39:57;1.73;;;1.63;;
49514;SDS011;35415;47.870;16.058;2023-07-16T10:42:26;1.83;;;1.65;;
49514;SDS011;35415;47.870;16.058;2023-07-16T10:44:54;1.75;;;1.63;;
49514;SDS011;35415;47.870;16.058;2023-07-16T10:47:25;1.75;;;1.50;;
49514;SDS011;35415;47.870;16.058;2023-07-16T10:49:55;2.38;;;2.13;;
49514;SDS011;35415;47.870;16.058;2023-07-16T10:52:23;2.13;;;1.92;;
49514;SDS011;35415;47.870;16.058;2023-07-16T10:54:53;4.47;;;1.80;;
49514;SDS011;35415;47.870;16.058;2023-07-16T10:57:22;2.00;;;1.80;;
49514;SDS011;35415;47.870;16.058;2023-07-16T10:59:50;1.88;;;1.70;;
49514;SDS011;35415;47.870;16.058;2023-07-16T11:02:18;2.15;;;1.70;;
49514;SDS011;35415;47.870;16.058;2023-07-16T11:04:47;2.03;;;1.90;;
49514;SDS011;35415;47.870;16.058;2023-07-16T11:07:15;1.60;;;1.50;;
49514;SDS011;35415;47.870;16.058;2023-07-16T11:09:44;1.92;;;1.75;;
49514;SDS011;35415;47.870;16.058;2023-07-16T11:12:13;2.00;;;1.70;;
49514;SDS011;35415;47.870;16.058;2023-07-16T11:14:44;3.05;;;2.05;;
49514;SDS011;35415;47.870;16.058;2023-07-16T11:17:13;2.10;;;1.60;;
49514;SDS011;35415;47.870;16.058;2023-07-16T11:19:44;3.33;;;1.80;;
49514;SDS011;35415;47.870;16.058;2023-07-16T11:22:13;1.65;;;1.55;;
49514;SDS011;35415;47.870;16.058;2023-07-16T11:24:41;3.78;;;1.90;;
49514;SDS011;35415;47.870;16.058;2023-07-16T11:27:14;2.65;;;2.33;;
49514;SDS011;35415;47.870;16.058;2023-07-16T11:29:46;2.60;;;1.75;;
49514;SDS011;35415;47.870;16.058;2023-07-16T11:32:25;2.13;;;2.03;;
49514;SDS011;35415;47.870;16.058;2023-07-16T11:34:57;2.00;;;1.90;;
49514;SDS011;35415;47.870;16.058;2023-07-16T11:37:25;2.80;;;2.13;;
49514;SDS011;35415;47.870;16.058;2023-07-16T11:39:56;1.85;;;1.75;;
49514;SDS011;35415;47.870;16.058;2023-07-16T11:42:23;2.08;;;1.98;;
49514;SDS011;35415;47.870;16.058;2023-07-16T11:44:56;2.10;;;2.00;;
49514;SDS011;35415;47.870;16.058;2023-07-16T11:47:23;2.25;;;1.90;;
49514;SDS011;35415;47.870;16.058;2023-07-16T11:49:51;2.70;;;1.83;;
49514;SDS011;35415;47.870;16.058;2023-07-16T11:52:19;1.95;;;1.70;;
49514;SDS011;35415;47.870;16.058;2023-07-16T11:54:47;2.80;;;2.17;;
49514;SDS011;35415;47.870;16.058;2023-07-16T11:57:15;1.90;;;1.80;;
49514;SDS011;35415;47.870;16.058;2023-07-16T11:59:43;2.78;;;2.03;;
49514;SDS011;35415;47.870;16.058;2023-07-16T12:02:25;2.13;;;1.92;;
49514;SDS011;35415;47.870;16.058;2023-07-16T12:04:54;2.00;;;1.80;;
49514;SDS011;35415;47.870;16.058;2023-07-16T12:07:30;2.15;;;2.00;;
49514;SDS011;35415;47.870;16.058;2023-07-16T12:09:59;2.42;;;2.25;;
49514;SDS011;35415;47.870;16.058;2023-07-16T12:12:27;2.75;;;2.05;;
49514;SDS011;35415;47.870;16.058;2023-07-16T12:14:54;2.45;;;2.00;;
49514;SDS011;35415;47.870;16.058;2023-07-16T12:17:22;2.20;;;2.00;;
49514;SDS011;35415;47.870;16.058;2023-07-16T12:19:51;2.08;;;1.80;;
49514;SDS011;35415;47.870;16.058;2023-07-16T12:22:19;3.13;;;2.20;;
49514;SDS011;35415;47.870;16.058;2023-07-16T12:24:47;3.13;;;2.28;;
49514;SDS011;35415;47.870;16.058;2023-07-16T12:27:14;2.10;;;2.00;;
49514;SDS011;35415;47.870;16.058;2023-07-16T12:29:42;2.80;;;2.15;;
49514;SDS011;35415;47.870;16.058;2023-07-16T12:32:09;2.15;;;2.03;;
49514;SDS011;35415;47.870;16.058;2023-07-16T12:34:39;2.47;;;1.75;;
49514;SDS011;35415;47.870;16.058;2023-07-16T12:37:06;2.85;;;1.80;;
49514;SDS011;35415;47.870;16.058;2023-07-16T12:39:34;2.10;;;1.90;;
49514;SDS011;35415;47.870;16.058;2023-07-16T12:42:01;3.55;;;2.17;;
49514;SDS011;35415;47.870;16.058;2023-07-16T12:44:29;2.30;;;1.90;;
49514;SDS011;35415;47.870;16.058;2023-07-16T12:46:56;1.90;;;1.80;;
49514;SDS011;35415;47.870;16.058;2023-07-16T12:49:23;2.17;;;1.98;;
49514;SDS011;35415;47.870;16.058;2023-07-16T12:52:05;2.42;;;2.22;;
49514;SDS011;35415;47.870;16.058;2023-07-16T12:54:32;2.92;;;2.17;;
49514;SDS011;35415;47.870;16.058;2023-07-16T12:57:01;2.75;;;2.55;;
49514;SDS011;35415;47.870;16.058;2023-07-16T12:59:28;3.40;;;3.13;;
49514;SDS011;35415;47.870;16.058;2023-07-16T13:01:55;2.33;;;2.08;;
49514;SDS011;35415;47.870;16.058;2023-07-16T13:04:22;2.45;;;2.10;;
49514;SDS011;35415;47.870;16.058;2023-07-16T13:06:50;5.03;;;2.08;;
49514;SDS011;35415;47.870;16.058;2023-07-16T13:09:22;2.85;;;1.88;;
49514;SDS011;35415;47.870;16.058;2023-07-16T13:11:50;2.08;;;1.98;;
49514;SDS011;35415;47.870;16.058;2023-07-16T13:14:20;2.63;;;2.10;;
49514;SDS011;35415;47.870;16.058;2023-07-16T13:16:47;2.85;;;2.20;;
49514;SDS011;35415;47.870;16.058;2023-07-16T13:19:14;2.40;;;2.10;;
49514;SDS011;35415;47.870;16.058;2023-07-16T13:21:41;2.65;;;2.45;;
49514;SDS011;35415;47.870;16.058;2023-07-16T13:24:09;2.97;;;2.08;;
49514;SDS011;35415;47.870;16.058;2023-07-16T13:26:38;2.47;;;1.80;;
49514;SDS011;35415;47.870;16.058;2023-07-16T13:29:05;1.90;;;1.80;;
49514;SDS011;35415;47.870;16.058;2023-07-16T13:31:34;3.05;;;2.45;;
49514;SDS011;35415;47.870;16.058;2023-07-16T13:34:01;2.10;;;1.77;;
49514;SDS011;35415;47.870;16.058;2023-07-16T13:36:28;2.50;;;2.10;;
49514;SDS011;35415;47.870;16.058;2023-07-16T13:38:56;2.05;;;1.85;;
49514;SDS011;35415;47.870;16.058;2023-07-16T13:41:25;2.20;;;2.10;;
49514;SDS011;35415;47.870;16.058;2023-07-16T13:43:56;2.00;;;1.90;;
49514;SDS011;35415;47.870;16.058;2023-07-16T13:46:24;2.22;;;2.13;;
49514;SDS011;35415;47.870;16.058;2023-07-16T13:48:51;2.67;;;2.45;;
49514;SDS011;35415;47.870;16.058;2023-07-16T13:51:19;2.70;;;2.47;;
49514;SDS011;35415;47.870;16.058;2023-07-16T13:53:46;2.60;;;2.20;;
49514;SDS011;35415;47.870;16.058;2023-07-16T13:56:14;3.65;;;2.30;;
49514;SDS011;35415;47.870;16.058;2023-07-16T13:58:41;2.60;;;2.40;;
49514;SDS011;35415;47.870;16.058;2023-07-16T14:01:10;2.60;;;2.10;;
49514;SDS011;35415;47.870;16.058;2023-07-16T14:03:37;2.25;;;2.10;;
49514;SDS011;35415;47.870;16.058;2023-07-16T14:06:04;2.47;;;2.28;;
49514;SDS011;35415;47.870;16.058;2023-07-16T14:08:32;2.35;;;2.25;;
49514;SDS011;35415;47.870;16.058;2023-07-16T14:11:01;5.00;;;2.28;;
49514;SDS011;35415;47.870;16.058;2023-07-16T14:13:29;2.10;;;2.00;;
49514;SDS011;35415;47.870;16.058;2023-07-16T14:15:56;2.00;;;1.90;;
49514;SDS011;35415;47.870;16.058;2023-07-16T14:18:26;2.40;;;2.20;;
49514;SDS011;35415;47.870;16.058;2023-07-16T14:20:53;2.22;;;2.10;;
49514;SDS011;35415;47.870;16.058;2023-07-16T14:23:21;2.53;;;2.20;;
49514;SDS011;35415;47.870;16.058;2023-07-16T14:25:49;2.40;;;2.20;;
49514;SDS011;35415;47.870;16.058;2023-07-16T14:28:17;3.33;;;2.30;;
49514;SDS011;35415;47.870;16.058;2023-07-16T14:30:44;2.65;;;2.00;;
49514;SDS011;35415;47.870;16.058;2023-07-16T14:33:11;2.67;;;2.47;;
49514;SDS011;35415;47.870;16.058;2023-07-16T14:35:41;2.30;;;2.20;;
49514;SDS011;35415;47.870;16.058;2023-07-16T14:38:08;2.83;;;2.63;;
49514;SDS011;35415;47.870;16.058;2023-07-16T14:40:36;4.05;;;2.35;;